NCAR-RAP Real-Time Weather Data

Output produced by METARs form (19 June 2019  11:25 UTC)
found at http://weather.rap.ucar.edu/surface/
 
KIPT 191054Z 00000KT 10SM SCT004 BKN050 BKN095 20/19 A2983 RMK AO2 RAB0959E19 SLP098 P0000 T02000189
KIPT 191004Z AUTO 00000KT 9SM -RA SCT005 BKN060 OVC090 19/18 A2983 RMK AO2 RAB0959 P0000 T01940183
KIPT 190954Z AUTO 00000KT 10SM BKN005 BKN047 OVC070 19/18 A2984 RMK AO2 SLP100 T01940183
KIPT 190943Z AUTO 00000KT 10SM BKN005 BKN044 OVC060 19/19 A2984 RMK AO2 T01940189
KIPT 190934Z AUTO 00000KT 10SM SCT004 BKN044 OVC060 19/18 A2984 RMK AO2 T01940183
KIPT 190854Z AUTO 00000KT 10SM SCT047 OVC060 19/19 A2983 RMK AO2 RAE13 SLP099 P0000 60002 T01940189 58008
KIPT 190754Z AUTO 00000KT 7SM -RA SCT005 BKN038 OVC060 19/19 A2984 RMK AO2 RAB05 SLP102 P0002 T01940189
KIPT 190654Z AUTO 00000KT 10SM BKN005 OVC100 20/19 A2985 RMK AO2 SLP104 T02000189
KIPT 190636Z AUTO 00000KT 10SM SCT005 OVC100 19/19 A2985 RMK AO2 T01940189
KIPT 190554Z AUTO 00000KT 10SM OVC100 20/19 A2986 RMK AO2 SLP108 T02000189 10233 20200 58005
KIPT 190454Z AUTO 00000KT 10SM OVC100 20/19 A2986 RMK AO2 SLP110 T02000189 402610183
KIPT 190354Z AUTO 00000KT 10SM FEW100 BKN110 20/19 A2988 RMK AO2 SLP115 T02000189
KIPT 190254Z AUTO 00000KT 10SM SCT042 21/19 A2987 RMK AO2 SLP112 T02110194 53006
KIPT 190154Z 13003KT 10SM SCT041 21/19 A2986 RMK AO2 SLP107 T02110194
KIPT 190054Z 00000KT 10SM SCT049 BKN080 22/19 A2986 RMK AO2 SLP108 T02220194
KIPT 182354Z 00000KT 10SM SCT090 23/20 A2985 RMK AO2 SLP106 T02280200 10261 20211 55001
KIPT 182254Z 12003KT 10SM CLR 24/21 A2984 RMK AO2 SLP102 T02390206
KIPT 182154Z 18003KT 10SM BKN050 25/18 A2985 RMK AO2 SLP104 T02500178
KIPT 182054Z 22004KT 10SM CLR 25/18 A2986 RMK AO2 SLP106 T02500178 56006
KIPT 181954Z 12003KT 10SM SCT022 24/19 A2986 RMK AO2 SLP108 T02440189
KIPT 181951Z VRB03KT 10SM SCT022 24/19 A2986 RMK AO2
KIPT 181936Z 10004KT 10SM BKN023 24/19 A2987 RMK AO2 T02440194
KIPT 181901Z 00000KT 10SM SCT024 SCT037 BKN046 23/18 A2987 RMK AO2 T02330183
KIPT 181854Z 00000KT 10SM BKN024 BKN031 BKN046 23/19 A2987 RMK AO2 SLP113 T02330189
KIPT 181754Z VRB04KT 10SM SCT016 OVC023 21/18 A2988 RMK AO2 RAE13 SLP117 P0001 60099 T02110183 10217 20189 58004
KIPT 181715Z 00000KT 10SM FEW007 BKN021 OVC060 21/19 A2988 RMK AO2 RAE13 P0001 T02110189
KIPT 181705Z 01003KT 8SM -RA FEW007 BKN030 OVC060 20/19 A2988 RMK AO2 P0001 T02000189
KIPT 181657Z 35006KT 2SM RA BR FEW007 BKN030 OVC060 20/19 A2989 RMK AO2 P0000 T02000189
KIPT 181654Z 36004KT 1 1/4SM +RA BR BKN030 BKN045 OVC060 19/19 A2989 RMK AO2 SLP118 P0052 T01940189
KIPT 181628Z 07005KT 1 3/4SM +RA BR BKN006 BKN041 OVC049 20/18 A2990 RMK AO2 P0014 T02000178
KIPT 181618Z 08009KT 6SM RA BR BKN006 BKN041 OVC049 21/18 A2989 RMK AO2 P0009 T02060183
KIPT 181609Z 06007KT 4SM RA BR SCT006 BKN011 OVC041 21/19 A2989 RMK AO2 P0008 T02110194
KIPT 181558Z 04004KT 2 1/2SM +RA BR BKN006 OVC036 21/19 A2989 RMK AO2 P0004 T02060194
KIPT 181549Z 00000KT 1 1/2SM RA BR BKN006 BKN026 OVC039 21/19 A2990 RMK AO2 RAB1459 SLP121 P0008 T02060194
KIPT 181548Z 00000KT 1 1/2SM +RA BR BKN006 BKN026 OVC044 21/19 A2990 RMK AO2 RAB1459 P0008
KIPT 181541Z 00000KT 2 1/2SM RA BR SCT006 BKN024 OVC047 21/19 A2990 RMK AO2 RAB1459 P0001 T02060194
KIPT 181538Z 16003KT 5SM -RA BR SCT006 BKN036 OVC047 21/19 A2990 RMK AO2 RAB1459 P0000 T02060194
KIPT 181454Z 08004KT 10SM SCT024 OVC036 21/19 A2990 RMK AO2 SLP121 60038 T02060194 57007
KIPT 181436Z 16004KT 10SM FEW009 BKN024 OVC055 21/19 A2990 RMK AO2 T02110189